createdAt,value
2022-08-03T00:03:31.262Z,99.90
2022-08-03T00:08:33.139Z,99.90
2022-08-03T00:13:42.082Z,99.90
2022-08-03T00:18:43.958Z,99.90
2022-08-03T00:23:52.420Z,99.90
2022-08-03T00:28:54.797Z,99.90
2022-08-03T00:33:58.244Z,99.90
2022-08-03T00:39:01.681Z,99.90
2022-08-03T00:44:03.761Z,99.90
2022-08-03T00:49:08.221Z,99.90
2022-08-03T00:54:10.459Z,99.90
2022-08-03T00:59:12.761Z,99.90
2022-08-03T01:04:16.236Z,99.90
2022-08-03T01:09:38.698Z,99.90
2022-08-03T01:14:47.134Z,99.90
2022-08-03T01:20:07.132Z,99.90
2022-08-03T01:25:32.457Z,99.90
2022-08-03T01:30:36.782Z,99.90
2022-08-03T01:35:55.825Z,99.90
2022-08-03T01:40:58.019Z,99.90
2022-08-03T01:46:00.374Z,99.90
2022-08-03T01:51:02.491Z,99.90
2022-08-03T01:56:06.077Z,99.90
2022-08-03T02:01:09.310Z,99.90
2022-08-03T02:07:00.259Z,99.90
2022-08-03T02:11:35.774Z,99.90
2022-08-03T02:16:37.665Z,99.90
2022-08-03T02:21:56.511Z,99.90
2022-08-03T02:27:02.189Z,99.90
2022-08-03T02:32:04.629Z,99.90
2022-08-03T02:37:07.472Z,99.90
2022-08-03T02:42:12.041Z,99.90
2022-08-03T02:47:15.799Z,99.90
2022-08-03T02:52:18.407Z,99.90
2022-08-03T02:57:21.859Z,99.90
2022-08-03T03:02:24.265Z,99.90
2022-08-03T03:07:26.934Z,99.90
2022-08-03T03:12:36.405Z,99.90
2022-08-03T03:17:39.268Z,99.90
2022-08-03T03:22:41.518Z,99.90
2022-08-03T03:27:49.572Z,99.90
2022-08-03T03:32:53.726Z,99.90
2022-08-03T03:37:55.699Z,99.90
2022-08-03T03:42:57.637Z,99.90
2022-08-03T03:48:00.719Z,99.90
2022-08-03T03:53:04.125Z,99.90
2022-08-03T03:58:06.374Z,99.90
2022-08-03T04:03:11.030Z,99.90
2022-08-03T04:08:34.045Z,99.90
2022-08-03T04:13:42.207Z,99.90
2022-08-03T04:18:48.550Z,99.90
2022-08-03T04:23:53.474Z,99.90
2022-08-03T04:28:55.642Z,99.90
2022-08-03T04:33:57.815Z,99.90
2022-08-03T04:39:03.730Z,99.90
2022-08-03T04:44:06.637Z,99.90
2022-08-03T04:49:09.383Z,99.90
2022-08-03T04:54:13.942Z,99.90
2022-08-03T04:59:17.710Z,99.90
2022-08-03T05:04:20.567Z,99.90
2022-08-03T05:09:50.826Z,99.90
2022-08-03T05:14:44.854Z,99.90
2022-08-03T05:19:46.657Z,99.90
2022-08-03T05:24:48.913Z,99.90
2022-08-03T05:29:51.218Z,99.90
2022-08-03T05:34:53.219Z,99.90
2022-08-03T05:39:55.075Z,99.90
2022-08-03T05:44:57.097Z,99.90
2022-08-03T05:49:58.968Z,99.90
2022-08-03T05:55:00.789Z,97.70
2022-08-03T06:00:05.432Z,95.60
2022-08-03T06:05:08.658Z,93.00
2022-08-03T06:10:36.451Z,91.60
2022-08-03T06:15:33.426Z,87.70
2022-08-03T06:20:35.295Z,88.90
2022-08-03T06:25:37.219Z,85.80
2022-08-03T06:30:41.293Z,81.30
2022-08-03T06:35:45.213Z,80.90
2022-08-03T06:40:47.160Z,81.60
2022-08-03T06:45:52.804Z,74.80
2022-08-03T06:50:54.710Z,75.10
2022-08-03T06:55:58.064Z,73.70
2022-08-03T07:01:00.346Z,69.60
2022-08-03T07:06:02.234Z,69.90
2022-08-03T07:11:05.373Z,68.00
2022-08-03T07:16:07.234Z,68.00
2022-08-03T07:21:11.034Z,67.90
2022-08-03T07:26:13.206Z,64.90
2022-08-03T07:31:15.045Z,65.30
2022-08-03T07:36:17.300Z,63.30
2022-08-03T07:41:19.147Z,58.90
2022-08-03T07:46:21.035Z,60.80
2022-08-03T07:51:22.912Z,62.00
2022-08-03T07:56:27.307Z,59.80
2022-08-03T08:01:29.809Z,56.00
2022-08-03T08:06:32.726Z,56.40
2022-08-03T08:11:39.665Z,56.60
2022-08-03T08:16:41.869Z,57.00
2022-08-03T08:21:53.561Z,57.30
2022-08-03T08:27:04.007Z,56.10
2022-08-03T08:32:06.411Z,55.60
2022-08-03T08:37:08.461Z,52.90
2022-08-03T08:42:10.504Z,52.60
2022-08-03T08:47:12.591Z,52.80
2022-08-03T08:52:24.889Z,51.00
2022-08-03T08:57:43.221Z,50.90
2022-08-03T09:02:46.419Z,51.50
2022-08-03T09:07:48.769Z,52.30
2022-08-03T09:12:53.586Z,52.70
2022-08-03T09:17:56.826Z,48.50
2022-08-03T09:23:44.731Z,48.90
2022-08-03T09:28:59.477Z,49.00
2022-08-03T09:34:00.950Z,56.70
2022-08-03T09:39:07.657Z,49.00
2022-08-03T09:44:24.129Z,48.60
2022-08-03T09:49:27.885Z,47.70
2022-08-03T09:54:31.562Z,47.30
2022-08-03T09:59:35.105Z,56.70
2022-08-03T10:04:47.905Z,55.40
2022-08-03T10:09:58.665Z,54.60
2022-08-03T10:16:22.720Z,48.60
2022-08-03T10:20:50.196Z,47.20
2022-08-03T10:25:55.427Z,47.70
2022-08-03T10:30:57.391Z,47.30
2022-08-03T10:36:00.198Z,47.50
2022-08-03T10:41:02.265Z,45.60
2022-08-03T10:46:07.298Z,53.70
2022-08-03T10:51:09.358Z,53.00
2022-08-03T10:56:51.406Z,54.10
2022-08-03T11:01:59.168Z,53.70
2022-08-03T11:07:22.470Z,46.40
2022-08-03T11:12:30.017Z,52.10
2022-08-03T11:17:46.228Z,53.50
2022-08-03T11:22:58.828Z,53.20
2022-08-03T11:28:30.531Z,50.80
2022-08-03T11:33:32.680Z,50.00
2022-08-03T11:38:34.603Z,46.30
2022-08-03T11:43:37.703Z,46.40
2022-08-03T11:48:43.139Z,45.30
2022-08-03T11:53:47.729Z,45.60
2022-08-03T11:59:16.737Z,45.40
2022-08-03T12:04:16.387Z,43.80
2022-08-03T12:09:18.430Z,45.20
2022-08-03T12:14:48.419Z,46.00
2022-08-03T12:19:45.445Z,46.50
2022-08-03T12:24:47.878Z,44.40
2022-08-03T12:29:58.638Z,46.50
2022-08-03T12:35:01.927Z,47.00
2022-08-03T12:40:10.071Z,47.00
2022-08-03T12:45:20.565Z,48.80
2022-08-03T12:50:33.501Z,46.40
2022-08-03T12:55:56.686Z,46.80
2022-08-03T13:01:01.006Z,48.10
2022-08-03T13:06:17.456Z,46.40
2022-08-03T13:11:19.349Z,48.50
2022-08-03T13:16:22.653Z,48.40
2022-08-03T13:21:24.482Z,47.00
2022-08-03T13:26:26.315Z,46.30
2022-08-03T13:31:28.274Z,46.00
2022-08-03T13:36:30.592Z,48.40
2022-08-03T13:41:44.698Z,49.80
2022-08-03T13:46:47.432Z,52.20
2022-08-03T13:51:49.312Z,51.50
2022-08-03T13:56:57.769Z,49.10
2022-08-03T14:02:02.279Z,48.20
2022-08-03T14:07:04.949Z,46.00
2022-08-03T14:12:08.952Z,45.50
2022-08-03T14:17:11.085Z,44.00
2022-08-03T14:22:13.925Z,44.00
2022-08-03T14:27:15.914Z,44.80
2022-08-03T14:32:17.769Z,42.70
2022-08-03T14:37:19.807Z,43.50
2022-08-03T14:42:21.805Z,45.70
2022-08-03T14:47:24.280Z,44.60
2022-08-03T14:52:26.213Z,44.90
2022-08-03T14:57:28.078Z,43.70
2022-08-03T15:02:30.499Z,43.30
2022-08-03T15:07:32.457Z,44.00
2022-08-03T15:12:34.417Z,43.50
2022-08-03T15:17:36.401Z,44.50
2022-08-03T15:22:42.364Z,45.90
2022-08-03T15:28:03.649Z,46.80
2022-08-03T15:33:06.626Z,47.10
2022-08-03T15:38:09.777Z,47.50
2022-08-03T15:43:12.493Z,46.40
2022-08-03T15:48:14.560Z,45.30
2022-08-03T15:53:17.323Z,45.60
2022-08-03T15:59:09.295Z,45.80
2022-08-03T16:03:40.996Z,46.40
2022-08-03T16:08:42.945Z,46.20
2022-08-03T16:14:13.154Z,46.40
2022-08-03T16:19:06.854Z,46.40
2022-08-03T16:24:09.144Z,46.90
2022-08-03T16:29:22.578Z,46.30
2022-08-03T16:34:25.302Z,45.50
2022-08-03T16:39:27.332Z,46.30
2022-08-03T16:44:30.739Z,47.00
2022-08-03T16:49:54.593Z,47.70
2022-08-03T16:54:54.979Z,48.60
2022-08-03T16:59:56.837Z,48.30
2022-08-03T17:04:59.276Z,49.30
2022-08-03T17:10:01.821Z,49.90
2022-08-03T17:15:04.753Z,50.50
2022-08-03T17:20:14.855Z,51.50
2022-08-03T17:25:22.032Z,51.10
2022-08-03T17:30:58.408Z,52.50
2022-08-03T17:36:01.946Z,51.10
2022-08-03T17:41:10.844Z,52.90
2022-08-03T17:46:14.034Z,53.10
2022-08-03T17:51:20.429Z,53.20
2022-08-03T17:56:44.970Z,55.10
2022-08-03T18:02:30.585Z,56.30
2022-08-03T18:07:40.875Z,56.90
2022-08-03T18:12:55.050Z,60.20
2022-08-03T18:18:10.538Z,62.60
2022-08-03T18:23:24.771Z,62.50
2022-08-03T18:28:36.239Z,62.80
2022-08-03T18:34:19.776Z,64.00
2022-08-03T18:44:45.598Z,65.80
2022-08-03T18:50:13.527Z,65.70
2022-08-03T18:55:35.445Z,66.00
2022-08-03T19:00:54.250Z,67.10
2022-08-03T19:06:13.275Z,67.90
2022-08-03T19:12:25.969Z,68.00
2022-08-03T19:17:14.070Z,68.00
2022-08-03T19:22:27.130Z,68.20
2022-08-03T19:27:31.101Z,68.40
2022-08-03T19:32:34.757Z,70.70
2022-08-03T19:37:40.147Z,72.10
2022-08-03T19:42:47.030Z,73.80
2022-08-03T19:47:52.527Z,73.60
2022-08-03T19:52:56.939Z,73.40
2022-08-03T19:58:01.127Z,75.20
2022-08-03T20:03:03.161Z,76.20
2022-08-03T20:08:07.088Z,78.40
2022-08-03T20:13:13.218Z,80.20
2022-08-03T20:18:21.221Z,78.80
2022-08-03T20:23:24.311Z,78.50
2022-08-03T20:28:50.562Z,78.80
2022-08-03T20:33:53.208Z,82.20
2022-08-03T20:38:57.996Z,81.40
2022-08-03T20:44:00.972Z,82.40
2022-08-03T20:49:04.163Z,81.80
2022-08-03T20:54:09.648Z,81.90
2022-08-03T20:59:38.478Z,82.40
2022-08-03T21:04:49.564Z,84.60
2022-08-03T21:09:55.501Z,88.60
2022-08-03T21:12:58.867Z,65.20
2022-08-03T21:15:04.945Z,86.60
2022-08-03T21:20:09.088Z,89.90
2022-08-03T21:25:14.469Z,89.70
2022-08-03T21:30:16.659Z,91.00
2022-08-03T21:35:19.741Z,92.00
2022-08-03T21:40:24.728Z,90.00
2022-08-03T21:45:26.669Z,88.00
2022-08-03T21:50:29.270Z,87.90
2022-08-03T21:55:31.517Z,90.00
2022-08-03T22:00:34.079Z,91.50
2022-08-03T22:05:43.708Z,91.00
2022-08-03T22:10:47.555Z,93.10
2022-08-03T22:15:49.673Z,93.30
2022-08-03T22:20:52.039Z,95.80
2022-08-03T22:25:56.049Z,96.30
2022-08-03T22:30:59.161Z,97.10
2022-08-03T22:36:23.557Z,98.10
2022-08-03T22:41:27.807Z,98.80
2022-08-03T22:46:31.089Z,96.80
2022-08-03T22:51:33.727Z,95.90
2022-08-03T22:56:37.739Z,94.70
2022-08-03T23:01:42.633Z,96.30
2022-08-03T23:06:45.711Z,96.90
2022-08-03T23:11:48.207Z,98.60
2022-08-03T23:16:51.057Z,99.90
2022-08-03T23:22:02.226Z,98.40
2022-08-03T23:27:06.903Z,99.90
2022-08-03T23:32:10.118Z,99.90
2022-08-03T23:37:14.889Z,99.90
2022-08-03T23:42:19.454Z,99.90
2022-08-03T23:47:21.605Z,99.90
2022-08-03T23:52:30.066Z,99.90
2022-08-03T23:58:10.913Z,99.90
